Time;durP1;ratioP1;P1;durP2;ratioP2;P2;SDS_P1;SDS_P2;PMS_P1;PMS_P2;Temp;Humidity;BMP_temperature;BMP_pressure;BME280_temperature;BME280_humidity;BME280_pressure;Samples;Min_cycle;Max_cycle;Signal;HPM_P1;HPM_P2
2023/05/13 00:03:01;;;;;;;7.70;4.80;;;;;;;9.77;44.50;100132.37;436381;1250;140044;-62
2023/05/13 00:13:07;;;;;;;8.10;5.20;;;;;;;9.70;44.89;100134.87;436603;1250;139274;-63
2023/05/13 00:23:13;;;;;;;7.20;4.00;;;;;;;9.57;45.28;100136.91;436459;1251;140905;-62
2023/05/13 00:33:19;;;;;;;6.40;5.60;;;;;;;9.53;45.58;100138.52;436280;1254;139797;-61
2023/05/13 00:43:25;;;;;;;7.00;4.40;;;;;;;9.46;45.40;100134.67;436438;1254;139230;-62
2023/05/13 00:53:32;;;;;;;5.60;4.10;;;;;;;9.46;45.96;100136.44;436507;1254;139111;-63
2023/05/13 01:03:44;;;;;;;5.00;4.40;;;;;;;9.54;45.80;100144.61;436641;1254;138926;-62
2023/05/13 01:13:56;;;;;;;4.00;3.50;;;;;;;9.58;45.64;100141.94;436311;1253;140455;-62
2023/05/13 01:24:02;;;;;;;5.00;3.40;;;;;;;9.57;45.80;100145.46;437293;1252;139111;-62
2023/05/13 01:34:10;;;;;;;3.90;3.30;;;;;;;9.47;45.35;100149.28;440479;1250;139146;-63
2023/05/13 01:44:16;;;;;;;6.50;5.20;;;;;;;9.37;45.85;100154.34;436565;1251;139381;-61
2023/05/13 01:54:21;;;;;;;3.80;3.40;;;;;;;9.40;46.08;100152.98;436578;1251;139507;-62
2023/05/13 02:04:28;;;;;;;5.60;4.00;;;;;;;9.38;46.31;100154.30;436506;1251;139102;-62
2023/05/13 02:14:33;;;;;;;5.90;3.40;;;;;;;9.28;46.68;100149.73;436309;1254;139203;-62
2023/05/13 02:24:39;;;;;;;4.30;3.90;;;;;;;9.14;47.01;100150.40;436706;1251;139795;-64
2023/05/13 02:34:45;;;;;;;5.30;3.70;;;;;;;9.10;47.19;100153.24;436727;1254;138802;-62
2023/05/13 02:44:51;;;;;;;6.50;4.00;;;;;;;9.00;47.39;100154.06;437115;1254;140002;-62
2023/05/13 02:54:57;;;;;;;6.30;4.30;;;;;;;9.07;47.62;100153.86;436491;1254;138861;-62
2023/05/13 03:05:03;;;;;;;5.60;4.30;;;;;;;9.09;47.72;100157.29;436304;1256;139181;-62
2023/05/13 03:15:11;;;;;;;4.00;3.40;;;;;;;9.16;47.71;100168.30;436495;1250;138903;-62
2023/05/13 03:25:15;;;;;;;;;;;;;;;9.40;47.58;100168.70;436827;1251;139056;-62
2023/05/13 03:35:22;;;;;;;7.80;3.80;;;;;;;9.66;47.32;100165.98;436526;1256;125960;-62
2023/05/13 03:45:27;;;;;;;4.40;3.30;;;;;;;9.90;46.92;100170.38;437990;1251;139740;-61
2023/05/13 03:55:33;;;;;;;3.50;3.10;;;;;;;10.21;46.42;100173.33;436791;1254;138619;-63
2023/05/13 04:05:39;;;;;;;5.60;3.60;;;;;;;10.67;45.66;100186.27;436622;1251;139630;-63
2023/05/13 04:15:45;;;;;;;6.10;3.70;;;;;;;13.61;43.91;100189.08;436518;1256;140602;-62
2023/05/13 04:25:53;;;;;;;8.40;3.80;;;;;;;19.99;36.80;100187.77;436685;1253;139069;-63
2023/05/13 04:35:59;;;;;;;8.60;3.10;;;;;;;22.05;32.33;100192.73;436783;1255;138671;-62
2023/05/13 04:46:05;;;;;;;4.10;2.50;;;;;;;18.02;33.38;100195.05;436628;1254;139777;-64
2023/05/13 04:56:11;;;;;;;5.70;3.00;;;;;;;22.71;31.51;100199.50;437060;1251;138574;-62
2023/05/13 05:06:17;;;;;;;5.00;3.30;;;;;;;27.51;27.43;100196.67;436681;1251;139279;-63
2023/05/13 05:16:23;;;;;;;4.60;2.60;;;;;;;30.75;24.62;100203.64;436486;1255;139167;-63
2023/05/13 05:26:29;;;;;;;4.00;2.60;;;;;;;33.23;22.07;100205.40;437161;1251;139321;-61
2023/05/13 05:36:35;;;;;;;2.00;1.90;;;;;;;35.25;20.03;100200.00;436946;1254;139526;-61
2023/05/13 05:46:43;;;;;;;2.90;1.70;;;;;;;36.70;18.46;100207.48;436713;1254;138651;-62
2023/05/13 05:56:48;;;;;;;4.10;2.10;;;;;;;38.89;17.29;100208.16;437022;1254;139132;-62
2023/05/13 06:06:54;;;;;;;3.20;1.80;;;;;;;40.07;15.68;100209.64;436867;1253;138886;-62
2023/05/13 06:17:00;;;;;;;2.80;1.70;;;;;;;40.53;14.63;100215.02;436186;1256;138770;-62
2023/05/13 06:27:06;;;;;;;2.60;1.80;;;;;;;41.62;13.78;100216.07;436553;1250;140163;-62
2023/05/13 06:37:13;;;;;;;2.60;2.30;;;;;;;40.88;13.28;100218.55;436750;1254;138585;-61
2023/05/13 06:47:18;;;;;;;2.00;1.90;;;;;;;41.97;13.25;100221.02;436996;1254;141343;-62
2023/05/13 06:57:27;;;;;;;3.40;2.00;;;;;;;42.72;12.89;100226.20;436444;1254;140177;-62
2023/05/13 07:07:46;;;;;;;2.00;1.90;;;;;;;42.83;12.50;100224.84;436473;1254;139157;-61
2023/05/13 07:17:52;;;;;;;2.10;1.40;;;;;;;43.13;12.04;100225.86;436128;1254;165204;-61
2023/05/13 07:27:58;;;;;;;2.00;1.80;;;;;;;43.70;11.49;100225.73;437666;1251;138954;-61
2023/05/13 07:38:04;;;;;;;2.10;1.90;;;;;;;43.84;11.20;100218.90;436643;1254;140396;-62
2023/05/13 07:48:10;;;;;;;3.10;1.60;;;;;;;42.45;11.61;100208.34;436320;1256;138495;-61
2023/05/13 07:58:17;;;;;;;3.30;1.60;;;;;;;42.27;11.56;100206.67;436655;1254;139101;-62
2023/05/13 08:08:23;;;;;;;1.80;1.40;;;;;;;38.83;12.30;100203.27;436695;1250;139042;-62
2023/05/13 08:18:29;;;;;;;5.40;2.00;;;;;;;31.81;15.28;100202.84;436463;1254;139087;-62
2023/05/13 08:28:34;;;;;;;4.90;1.90;;;;;;;27.72;18.10;100204.47;437168;1254;139040;-62
2023/05/13 08:38:41;;;;;;;2.70;1.70;;;;;;;25.49;19.72;100207.42;436497;1254;139630;-62
2023/05/13 08:48:48;;;;;;;3.60;2.00;;;;;;;23.93;20.65;100217.84;436691;1254;138880;-63
2023/05/13 08:58:54;;;;;;;4.00;1.80;;;;;;;23.08;21.55;100207.06;436661;1252;140506;-61
2023/05/13 09:09:01;;;;;;;3.10;2.00;;;;;;;22.86;22.34;100207.27;436120;1251;140238;-62
2023/05/13 09:19:10;;;;;;;4.40;2.60;;;;;;;22.56;22.54;100203.05;436754;1251;140656;-61
2023/05/13 09:29:24;;;;;;;2.20;2.00;;;;;;;22.76;22.00;100192.77;436787;1254;139309;-64
2023/05/13 09:39:31;;;;;;;2.10;1.90;;;;;;;22.71;22.30;100180.48;436812;1251;139418;-62
2023/05/13 09:49:40;;;;;;;1.80;1.40;;;;;;;22.49;22.00;100183.40;436816;1253;138796;-63
2023/05/13 09:59:46;;;;;;;2.30;1.60;;;;;;;21.75;21.75;100178.66;436695;1252;139118;-62
2023/05/13 10:09:54;;;;;;;1.60;1.30;;;;;;;21.63;21.99;100170.11;436266;1254;139237;-63
2023/05/13 10:19:58;;;;;;;;;;;;;;;21.27;21.92;100169.46;436941;1251;138742;-63
2023/05/13 10:30:09;;;;;;;3.00;1.40;;;;;;;21.18;22.24;100164.75;436465;1251;126269;-62
2023/05/13 10:40:49;;;;;;;2.90;1.40;;;;;;;20.86;22.87;100153.91;436393;1251;140044;-63
2023/05/13 10:50:57;;;;;;;1.90;1.50;;;;;;;20.93;23.13;100149.92;436764;1251;138446;-63
2023/05/13 11:01:18;;;;;;;3.00;1.80;;;;;;;20.47;23.43;100158.31;437111;1254;138647;-63
2023/05/13 11:11:31;;;;;;;3.70;1.30;;;;;;;20.43;23.71;100142.36;436854;1254;140058;-64
2023/05/13 11:21:40;;;;;;;22.90;3.00;;;;;;;20.47;23.66;100139.30;436885;1254;138629;-62
2023/05/13 11:31:47;;;;;;;2.80;2.10;;;;;;;20.39;23.75;100141.38;436797;1251;140113;-66
2023/05/13 11:41:56;;;;;;;2.20;1.50;;;;;;;20.39;23.49;100141.48;436290;1254;139769;-66
2023/05/13 11:52:02;;;;;;;1.60;1.50;;;;;;;20.41;23.54;100134.74;436569;1254;140156;-66
2023/05/13 12:02:08;;;;;;;3.70;1.70;;;;;;;20.37;23.77;100133.67;436636;1251;138963;-67
2023/05/13 12:12:15;;;;;;;1.70;1.60;;;;;;;20.53;23.93;100126.64;436430;1254;139673;-67
2023/05/13 12:22:24;;;;;;;5.20;2.30;;;;;;;20.67;23.99;100124.38;436466;1251;139573;-66
2023/05/13 12:32:29;;;;;;;6.00;2.50;;;;;;;20.57;23.56;100127.31;436332;1254;139310;-68
2023/05/13 12:42:36;;;;;;;4.80;2.00;;;;;;;20.39;23.66;100127.66;436260;1251;139519;-67
2023/05/13 12:52:42;;;;;;;4.60;2.20;;;;;;;20.51;23.93;100129.65;436412;1251;138801;-67
2023/05/13 13:02:47;;;;;;;6.00;2.30;;;;;;;20.53;23.88;100125.55;436989;1251;138619;-67
2023/05/13 13:12:53;;;;;;;21.20;2.50;;;;;;;20.35;24.22;100117.55;436476;1254;139084;-65
2023/05/13 13:23:00;;;;;;;2.60;1.50;;;;;;;20.40;24.15;100103.35;436268;1251;139300;-67
2023/05/13 13:33:06;;;;;;;8.50;2.70;;;;;;;20.69;24.04;100089.49;436833;1250;139062;-66
2023/05/13 13:43:12;;;;;;;;;;;;;;;20.60;24.20;100088.65;437260;1250;139028;-68
2023/05/13 13:53:18;;;;;;;2.70;2.00;;;;;;;20.45;24.47;100091.52;436595;1251;125564;-68
2023/05/13 14:03:24;;;;;;;3.90;1.90;;;;;;;20.41;24.71;100084.77;437008;1251;139278;-66
2023/05/13 14:13:30;;;;;;;2.10;1.50;;;;;;;19.99;24.49;100084.17;436380;1251;138603;-67
2023/05/13 14:23:37;;;;;;;3.50;1.70;;;;;;;19.97;24.77;100081.70;436154;1250;139139;-67
2023/05/13 14:33:43;;;;;;;2.40;1.90;;;;;;;20.02;24.92;100079.30;436336;1250;138671;-68
2023/05/13 14:43:48;;;;;;;2.20;2.10;;;;;;;19.81;25.20;100077.45;436737;1250;139218;-67
2023/05/13 14:53:54;;;;;;;1.90;1.80;;;;;;;19.39;25.64;100074.88;436885;1251;140783;-67
2023/05/13 15:04:00;;;;;;;2.40;2.20;;;;;;;19.29;25.62;100077.20;436420;1251;139926;-67
2023/05/13 15:14:06;;;;;;;3.00;2.00;;;;;;;19.62;25.43;100063.13;436387;1250;139537;-68
2023/05/13 15:24:12;;;;;;;2.90;1.80;;;;;;;19.90;24.95;100062.48;437050;1251;139895;-66
2023/05/13 15:34:18;;;;;;;2.50;1.70;;;;;;;19.95;25.32;100055.06;436822;1250;139629;-66
2023/05/13 15:44:23;;;;;;;3.40;2.30;;;;;;;19.90;25.28;100044.11;436378;1251;138590;-66
2023/05/13 15:54:29;;;;;;;5.30;1.60;;;;;;;19.76;24.71;100039.65;436323;1251;139797;-66
2023/05/13 16:04:35;;;;;;;3.40;1.60;;;;;;;19.57;24.93;100039.25;436260;1251;140081;-66
2023/05/13 16:14:41;;;;;;;2.40;2.00;;;;;;;19.36;25.25;100031.61;436478;1254;140896;-66
2023/05/13 16:24:47;;;;;;;4.90;2.00;;;;;;;19.25;25.79;100031.79;436228;1251;139492;-67
2023/05/13 16:34:53;;;;;;;4.90;2.50;;;;;;;19.17;26.18;100026.34;436359;1254;138840;-67
2023/05/13 16:44:59;;;;;;;4.00;2.10;;;;;;;19.03;26.67;100025.13;436353;1254;138690;-67
2023/05/13 16:55:06;;;;;;;3.00;1.80;;;;;;;19.04;27.07;100025.53;436799;1251;138756;-67
2023/05/13 17:05:12;;;;;;;2.40;2.20;;;;;;;19.59;26.62;100019.34;436693;1251;140303;-70
2023/05/13 17:15:18;;;;;;;2.80;2.40;;;;;;;19.11;27.05;100019.09;436560;1251;139291;-67
2023/05/13 17:25:24;;;;;;;4.00;2.50;;;;;;;19.00;27.67;100026.66;436917;1254;139832;-67
2023/05/13 17:35:30;;;;;;;5.40;2.70;;;;;;;19.40;27.63;100029.45;436766;1251;140311;-67
2023/05/13 17:45:35;;;;;;;3.50;2.70;;;;;;;18.58;28.53;100036.22;436694;1251;138858;-67
2023/05/13 17:55:41;;;;;;;4.80;4.00;;;;;;;18.06;29.61;100042.58;435760;1254;138957;-66
2023/05/13 18:05:47;;;;;;;5.90;2.90;;;;;;;17.80;29.96;100036.13;436134;1250;139185;-65
2023/05/13 18:15:53;;;;;;;28.40;5.60;;;;;;;17.16;30.92;100043.70;436248;1254;140649;-63
2023/05/13 18:25:59;;;;;;;5.80;3.40;;;;;;;16.64;32.06;100051.00;436416;1251;139267;-62
2023/05/13 18:36:06;;;;;;;10.20;4.80;;;;;;;16.10;33.69;100061.15;436677;1251;140912;-62
2023/05/13 18:46:14;;;;;;;9.00;4.80;;;;;;;15.50;36.01;100074.06;436443;1254;140399;-63
2023/05/13 18:56:20;;;;;;;13.00;7.90;;;;;;;14.93;37.83;100083.48;436471;1251;138846;-65
2023/05/13 19:06:26;;;;;;;9.20;7.50;;;;;;;14.41;39.39;100088.64;436147;1251;139802;-66
2023/05/13 19:16:32;;;;;;;15.00;7.10;;;;;;;13.97;40.47;100093.13;435891;1250;182864;-66
2023/05/13 19:26:38;;;;;;;18.50;9.10;;;;;;;13.61;41.53;100094.73;435825;1252;140328;-64
2023/05/13 19:36:46;;;;;;;15.40;9.80;;;;;;;13.18;43.34;100110.40;436228;1254;138879;-66
2023/05/13 19:46:51;;;;;;;26.70;11.50;;;;;;;12.72;44.91;100120.37;436617;1250;140077;-66
2023/05/13 19:56:58;;;;;;;17.90;11.30;;;;;;;12.28;46.58;100129.16;436916;1251;139295;-66
2023/05/13 20:07:04;;;;;;;34.90;18.50;;;;;;;11.97;46.36;100123.10;436959;1251;138966;-67
2023/05/13 20:17:14;;;;;;;30.40;19.40;;;;;;;11.70;48.33;100116.98;436497;1250;139897;-66
2023/05/13 20:27:20;;;;;;;19.50;13.50;;;;;;;11.37;49.23;100118.23;436740;1254;140026;-65
2023/05/13 20:37:27;;;;;;;26.00;16.00;;;;;;;11.05;50.48;100123.39;436543;1254;139033;-66
2023/05/13 20:47:33;;;;;;;30.00;17.50;;;;;;;10.74;51.52;100120.77;436039;1254;139706;-67
2023/05/13 20:57:39;;;;;;;24.00;17.00;;;;;;;10.43;52.94;100117.05;437042;1251;140547;-69
2023/05/13 21:07:45;;;;;;;28.40;18.70;;;;;;;10.13;53.70;100119.00;437113;1251;139014;-66
2023/05/13 21:17:50;;;;;;;22.00;15.70;;;;;;;9.90;54.38;100117.71;436796;1254;139479;-67
2023/05/13 21:27:56;;;;;;;24.50;16.00;;;;;;;9.73;55.08;100116.36;436437;1251;139156;-65
2023/05/13 21:38:02;;;;;;;23.90;16.20;;;;;;;9.51;56.05;100119.59;437625;1254;140061;-66
2023/05/13 21:48:17;;;;;;;24.50;16.20;;;;;;;9.27;56.77;100120.09;436249;1250;140553;-67
2023/05/13 21:58:24;;;;;;;20.90;15.40;;;;;;;9.05;57.61;100114.88;436182;1251;139791;-66
2023/05/13 22:08:30;;;;;;;23.80;15.80;;;;;;;8.88;58.05;100118.30;436911;1253;138856;-67
2023/05/13 22:18:36;;;;;;;26.40;17.40;;;;;;;8.73;58.62;100122.50;436591;1251;139176;-66
2023/05/13 22:28:42;;;;;;;32.00;21.90;;;;;;;8.67;59.00;100129.77;436429;1255;139880;-68
2023/05/13 22:38:48;;;;;;;27.70;19.20;;;;;;;8.60;59.20;100135.52;436508;1250;140161;-67
2023/05/13 22:48:54;;;;;;;36.60;18.10;;;;;;;8.51;59.24;100130.48;436963;1255;139004;-66
2023/05/13 22:59:00;;;;;;;26.80;17.80;;;;;;;8.41;60.11;100135.11;436734;1250;140203;-66
2023/05/13 23:09:06;;;;;;;33.10;19.00;;;;;;;8.28;60.85;100140.44;436918;1251;140546;-67
2023/05/13 23:19:12;;;;;;;26.00;17.10;;;;;;;8.29;61.34;100134.77;437075;1251;140586;-66
2023/05/13 23:29:18;;;;;;;16.30;13.70;;;;;;;8.28;61.64;100128.03;437047;1251;139916;-66
2023/05/13 23:39:24;;;;;;;23.10;17.50;;;;;;;8.17;61.75;100118.75;436736;1255;140661;-66
2023/05/13 23:49:30;;;;;;;21.50;16.90;;;;;;;8.00;62.49;100117.95;437126;1256;139658;-65
2023/05/13 23:59:36;;;;;;;19.40;17.10;;;;;;;7.81;63.07;100108.67;436627;1254;141242;-65
